Terminal Aerodrome Forecast
Issued by NWS

Home | Current Version | Previous Version | Text Only | Print | Product List | Glossary On
Versions: 1 2 3 4 5 6 7 8 9 10 11 12 13 14
000
FTUS45 KVEF 280901 AAA
TAFBIH
TAF AMD
KBIH 280901Z 2809/2906 36015KT P6SM SCT250
     FM281700 35014G24KT P6SM SCT250=

USA.gov is the U.S. government's official web portal to all federal, state and local government web resources and services.